Time;durP1;ratioP1;P1;durP2;ratioP2;P2;SDS_P1;SDS_P2;PMS_P1;PMS_P2;Temp;Humidity;BMP_temperature;BMP_pressure;BME280_temperature;BME280_humidity;BME280_pressure;Samples;Min_cycle;Max_cycle;Signal;HPM_P1;HPM_P2
2023/07/03 07:01:29;;;;;;;0.10;0.10;;;17.70;99.90;20.10;100906.00;;;;6154207;22;1509624;-64
2023/07/03 07:03:56;;;;;;;0.70;0.57;;;17.70;99.90;20.90;100919.00;;;;6191091;23;20553;-64
2023/07/03 07:06:26;;;;;;;5.43;1.63;;;18.10;99.90;19.90;100911.00;;;;6191392;23;20150;-64
2023/07/03 07:08:54;;;;;;;0.93;0.93;;;17.80;99.90;19.80;100902.00;;;;6216867;23;20508;-64
2023/07/03 07:11:26;;;;;;;5.57;2.17;;;17.60;99.90;19.50;100915.00;;;;6217820;23;20140;-64
2023/07/03 07:13:58;;;;;;;0.43;0.30;;;17.60;99.90;20.60;100930.00;;;;6217492;23;20140;-64
2023/07/03 07:16:31;;;;;;;5.70;2.23;;;17.80;99.90;20.50;100925.00;;;;6190931;23;20144;-64
2023/07/03 07:19:07;;;;;;;0.53;0.53;;;18.00;99.90;21.50;100933.00;;;;6191229;23;20573;-64
2023/07/03 07:21:43;;;;;;;9.93;3.43;;;18.30;99.90;19.60;100927.00;;;;6217514;23;20143;-64
2023/07/03 07:24:19;;;;;;;2.17;1.50;;;18.10;99.90;20.10;100933.00;;;;6192038;23;20193;-64
2023/07/03 07:26:59;;;;;;;6.40;1.93;;;18.20;99.90;20.40;100937.00;;;;6190956;23;20172;-64
2023/07/03 07:29:28;;;;;;;15.13;3.08;;;18.10;99.90;22.50;100945.00;;;;6217042;23;20590;-64
2023/07/03 07:31:57;;;;;;;6.25;1.75;;;19.30;99.90;20.60;100925.00;;;;6217277;23;20602;-64
2023/07/03 07:34:26;;;;;;;4.90;3.17;;;19.00;99.90;20.80;100944.00;;;;6217435;23;20142;-64
2023/07/03 07:36:54;;;;;;;9.07;1.98;;;18.90;99.90;20.00;100928.00;;;;6217094;23;20151;-64
2023/07/03 07:39:24;;;;;;;3.07;1.30;;;18.30;99.90;20.80;100937.00;;;;6216965;23;20142;-64
2023/07/03 07:41:55;;;;;;;1.60;0.30;;;18.50;99.90;21.50;100956.00;;;;6217050;23;20147;-64
2023/07/03 07:44:29;;;;;;;2.10;1.03;;;18.80;99.90;20.70;100954.00;;;;6217095;23;20573;-64
2023/07/03 07:47:00;;;;;;;4.20;1.73;;;18.70;99.90;20.30;100956.00;;;;6216886;23;20144;-64
2023/07/03 07:49:29;;;;;;;15.57;2.33;;;18.50;99.90;20.40;100953.00;;;;6190556;23;20148;-64
2023/07/03 07:51:58;;;;;;;4.82;1.52;;;18.60;99.90;20.20;100949.00;;;;6190883;23;20175;-64
2023/07/03 07:54:26;;;;;;;13.48;1.80;;;18.30;99.90;20.30;100953.00;;;;6217247;23;20145;-64
2023/07/03 07:56:56;;;;;;;10.30;3.50;;;18.40;99.90;21.50;100960.00;;;;6217186;23;20252;-64
2023/07/03 07:59:24;;;;;;;2.70;1.52;;;18.80;99.90;22.40;100993.00;;;;6221624;23;20241;-64
2023/07/03 08:01:53;;;;;;;0.50;0.50;;;19.50;99.90;23.50;100997.00;;;;6247506;23;20173;-64
2023/07/03 08:04:19;;;;;;;2.28;1.58;;;19.90;99.90;22.30;101006.00;;;;6246943;23;20177;-64
2023/07/03 08:06:48;;;;;;;1.35;0.93;;;20.00;99.90;21.70;101022.00;;;;6245851;23;20181;-64
2023/07/03 08:09:25;;;;;;;2.17;1.58;;;19.70;99.90;23.50;100996.00;;;;6247730;23;20134;-64
2023/07/03 08:11:56;;;;;;;1.42;1.33;;;20.10;99.90;22.10;101010.00;;;;6220385;23;20177;-64
2023/07/03 08:14:24;;;;;;;4.13;2.92;;;19.80;99.90;22.40;101014.00;;;;6247121;23;20597;-64
2023/07/03 08:16:52;;;;;;;7.90;1.70;;;20.00;99.90;22.40;101019.00;;;;6220176;23;20571;-64
2023/07/03 08:19:21;;;;;;;3.75;1.05;;;20.10;99.90;21.40;101027.00;;;;6247123;23;20141;-64
2023/07/03 08:21:47;;;;;;;4.40;2.85;;;19.60;99.90;22.60;101024.00;;;;6247069;23;20583;-64
2023/07/03 08:24:13;;;;;;;0.40;0.32;;;19.90;99.90;22.40;101019.00;;;;6195539;23;20161;-64
2023/07/03 08:26:41;;;;;;;5.68;2.85;;;19.70;99.90;22.70;101032.00;;;;6247093;23;20141;-65
2023/07/03 08:29:12;;;;;;;1.55;1.08;;;20.10;99.90;23.70;101029.00;;;;6220735;23;20177;-65
2023/07/03 08:31:56;;;;;;;3.33;1.15;;;20.60;99.90;22.20;101049.00;;;;6220175;23;20158;-65
2023/07/03 08:34:43;;;;;;;0.25;0.25;;;20.10;99.90;24.00;101035.00;;;;6247394;23;20142;-65
2023/07/03 08:37:11;;;;;;;3.42;1.33;;;20.50;99.90;23.00;101055.00;;;;6246201;23;20158;-63
2023/07/03 08:39:41;;;;;;;1.25;0.57;;;20.70;99.90;26.10;101002.00;;;;6195828;23;20154;-65
2023/07/03 08:42:47;;;;;;;3.47;1.10;;;22.00;99.90;22.90;101051.00;;;;6220460;23;20157;-65
2023/07/03 08:45:39;;;;;;;3.35;1.48;;;21.30;99.90;22.90;101056.00;;;;6247028;23;20177;-65
2023/07/03 08:48:19;;;;;;;4.78;2.05;;;20.90;99.90;22.50;101059.00;;;;6219690;23;20214;-64
2023/07/03 08:51:12;;;;;;;1.65;1.48;;;20.40;99.90;23.30;101048.00;;;;6195027;23;20153;-64
2023/07/03 08:53:47;;;;;;;6.13;1.65;;;20.90;99.90;23.40;101043.00;;;;6195451;23;20184;-64
2023/07/03 08:56:21;;;;;;;2.97;1.30;;;20.80;99.90;22.90;101065.00;;;;6246880;23;20272;-65
2023/07/03 08:59:02;;;;;;;1.60;1.50;;;20.60;99.90;23.80;101045.00;;;;6246920;23;20146;-64
2023/07/03 09:01:47;;;;;;;2.40;0.95;;;20.80;99.90;21.80;101083.00;;;;6247102;23;20236;-64
2023/07/03 09:04:48;;;;;;;1.85;0.90;;;20.00;99.90;24.10;101041.00;;;;6246823;23;20154;-65
2023/07/03 09:07:30;;;;;;;0.47;0.47;;;20.70;99.90;22.30;101080.00;;;;6220006;23;20232;-64
2023/07/03 09:10:23;;;;;;;1.00;0.90;;;20.20;99.90;22.40;101089.00;;;;6219732;23;20157;-65
2023/07/03 09:13:14;;;;;;;2.05;1.48;;;20.10;99.90;24.40;101054.00;;;;6220070;23;20162;-65
2023/07/03 09:16:12;;;;;;;3.22;1.15;;;20.70;99.90;23.10;101065.00;;;;6220331;23;20213;-64
2023/07/03 09:19:08;;;;;;;1.08;0.82;;;20.70;99.90;22.20;101084.00;;;;6219693;23;20585;-65
2023/07/03 09:21:36;;;;;;;0.20;0.20;;;20.10;99.90;24.30;101048.00;;;;6209671;23;20158;-65
2023/07/03 09:24:27;;;;;;;4.20;1.30;;;20.60;99.90;24.40;101033.00;;;;6220078;23;20200;-65
2023/07/03 09:27:18;;;;;;;1.35;1.13;;;21.70;99.90;23.40;101054.00;;;;6219929;23;20145;-65
2023/07/03 09:30:06;;;;;;;3.25;1.85;;;21.10;99.90;24.10;101039.00;;;;6246206;23;20598;-65
2023/07/03 09:33:16;;;;;;;2.85;1.48;;;21.10;99.90;23.40;101043.00;;;;6246346;23;20469;-64
2023/07/03 09:36:25;;;;;;;1.58;1.00;;;21.60;99.90;23.10;101063.00;;;;6222872;23;20472;-64
2023/07/03 09:39:18;;;;;;;3.70;2.10;;;21.00;99.90;24.80;101034.00;;;;6245295;23;20541;-65
2023/07/03 09:41:46;;;;;;;1.25;0.98;;;21.10;99.90;22.70;101081.00;;;;6200072;23;20444;-65
2023/07/03 09:44:21;;;;;;;0.70;0.70;;;20.70;99.90;21.90;101099.00;;;;6219633;23;20138;-65
2023/07/03 09:46:58;;;;;;;0.10;0.10;;;19.90;99.90;24.10;101064.00;;;;6194224;23;20167;-65
2023/07/03 09:49:30;;;;;;;0.38;0.38;;;20.30;99.90;24.10;101061.00;;;;6219712;23;20633;-65
2023/07/03 09:52:10;;;;;;;0.20;0.20;;;21.00;99.90;24.60;101060.00;;;;6218065;23;20634;-65
2023/07/03 09:54:43;;;;;;;2.72;1.20;;;21.30;99.90;23.60;101072.00;;;;6219838;23;20483;-65
2023/07/03 09:57:42;;;;;;;27.30;1.30;;;21.20;99.90;23.80;101054.00;;;;6194575;23;20157;-65
2023/07/03 10:00:46;;;;;;;2.63;0.45;;;21.40;99.90;24.40;101044.00;;;;6112155;23;20201;-65
2023/07/03 10:03:35;;;;;;;2.15;0.85;;;21.90;99.90;23.20;101082.00;;;;6162253;23;20166;-65
2023/07/03 10:06:25;;;;;;;5.85;1.52;;;20.90;99.90;23.70;101077.00;;;;6121494;23;20543;-65
2023/07/03 10:09:05;;;;;;;1.95;1.10;;;20.90;99.90;22.00;101127.00;;;;6189262;23;20158;-64
2023/07/03 10:12:38;;;;;;;1.00;0.50;;;20.20;99.90;22.20;101126.00;;;;6189556;23;20146;-65
2023/07/03 10:15:47;;;;;;;4.15;0.95;;;19.80;99.90;21.90;101139.00;;;;6215969;23;20468;-65
2023/07/03 10:18:48;;;;;;;1.13;1.05;;;19.50;99.90;22.30;101147.00;;;;6047082;23;20168;-65
2023/07/03 10:44:33;;;;;;;1.85;1.13;;;19.00;99.90;22.60;101124.00;;;;6159702;22;4477592;-65
2023/07/03 10:51:50;;;;;;;0.82;0.40;;;20.10;99.90;21.90;101139.00;;;;6305046;22;20183;-64
2023/07/03 10:54:54;;;;;;;0.40;0.40;;;19.90;99.90;22.20;101126.00;;;;6290365;22;20159;-64
2023/07/03 10:57:36;;;;;;;0.60;0.60;;;19.80;99.90;22.70;101104.00;;;;6315191;22;20160;-64
2023/07/03 11:00:17;;;;;;;0.95;0.68;;;20.30;99.90;24.10;101058.00;;;;6289500;22;20479;-64
2023/07/03 11:03:26;;;;;;;6.20;1.85;;;21.10;99.90;23.60;101074.00;;;;6289986;22;20147;-64
2023/07/03 11:06:19;;;;;;;0.25;0.25;;;21.00;99.90;23.20;101075.00;;;;6290317;22;20164;-64
2023/07/03 11:09:33;;;;;;;2.22;0.57;;;21.00;99.90;24.10;101061.00;;;;6289084;22;20538;-64
2023/07/03 11:20:08;;;;;;;2.20;0.85;;;20.90;99.90;23.80;101073.00;;;;6280658;22;20168;-64
2023/07/03 11:23:10;;;;;;;1.35;1.25;;;21.10;99.90;22.30;101124.00;;;;6288942;22;20561;-64
2023/07/03 11:25:52;;;;;;;1.77;0.73;;;20.20;99.90;22.50;101101.00;;;;6316193;22;20209;-64
2023/07/03 11:28:36;;;;;;;8.48;1.65;;;20.40;99.90;23.70;101102.00;;;;6316469;22;20140;-64
2023/07/03 11:31:26;;;;;;;0.85;0.45;;;20.50;99.90;22.10;101132.00;;;;6316213;22;20549;-64
2023/07/03 11:34:07;;;;;;;3.78;3.47;;;19.80;99.90;23.70;101099.00;;;;6263299;22;20185;-64
2023/07/03 11:36:54;;;;;;;1.20;0.75;;;20.30;99.90;25.50;101027.00;;;;6290792;22;20211;-64
2023/07/03 11:39:49;;;;;;;3.78;1.40;;;21.70;99.90;23.80;101086.00;;;;6289112;22;20243;-65
2023/07/03 11:42:27;;;;;;;0.70;0.70;;;22.00;99.90;24.80;101060.00;;;;6288647;22;20175;-65
2023/07/03 11:45:05;;;;;;;0.73;0.73;;;21.80;99.90;24.10;101076.00;;;;6281268;22;20672;-65
2023/07/03 11:47:43;;;;;;;1.52;0.73;;;21.60;99.90;23.70;101074.00;;;;6309222;22;20166;-65
2023/07/03 11:50:33;;;;;;;1.67;1.00;;;21.30;99.90;23.60;101078.00;;;;6280804;22;20239;-64
2023/07/03 11:53:06;;;;;;;3.30;1.65;;;21.00;99.90;22.80;101110.00;;;;6281802;22;20188;-64
2023/07/03 11:56:14;;;;;;;0.73;0.45;;;20.80;99.90;24.20;101068.00;;;;6281867;22;20152;-65
2023/07/03 11:59:26;;;;;;;1.95;1.20;;;21.40;99.90;25.20;101065.00;;;;6282219;22;20167;-64
2023/07/03 12:02:11;;;;;;;3.05;0.90;;;21.70;99.90;24.50;101054.00;;;;6256002;22;20654;-64
2023/07/03 12:05:09;;;;;;;1.73;0.65;;;21.60;99.90;22.70;101113.00;;;;6278552;22;20647;-64
2023/07/03 12:08:37;;;;;;;0.43;0.43;;;20.80;99.90;23.70;101111.00;;;;6282358;22;20642;-65
2023/07/03 12:11:12;;;;;;;2.53;0.90;;;20.90;99.90;22.30;101137.00;;;;6308365;22;20562;-64
2023/07/03 12:13:54;;;;;;;5.82;1.00;;;20.40;99.90;23.50;101123.00;;;;6308416;22;20150;-64
2023/07/03 12:16:45;;;;;;;3.63;1.40;;;20.60;99.90;23.00;101138.00;;;;6281840;22;20144;-64
2023/07/03 12:19:39;;;;;;;1.67;0.50;;;20.70;99.90;23.40;101126.00;;;;6308659;22;20141;-64
2023/07/03 12:22:35;;;;;;;2.67;0.95;;;20.80;99.90;24.70;101081.00;;;;6281189;22;20183;-64
2023/07/03 12:25:27;;;;;;;7.18;1.67;;;21.40;99.90;23.40;101119.00;;;;6271446;22;20217;-64
2023/07/03 12:28:17;;;;;;;2.17;0.93;;;21.40;99.90;23.80;101128.00;;;;6281331;22;20147;-64
2023/07/03 12:30:58;;;;;;;0.70;0.65;;;21.30;99.90;23.20;101120.00;;;;6281331;22;20156;-64
2023/07/03 12:34:00;;;;;;;3.92;1.10;;;20.90;99.90;23.90;101109.00;;;;6281879;22;20163;-64
2023/07/03 12:36:54;;;;;;;3.03;1.35;;;21.20;99.90;24.60;101099.00;;;;6282139;22;20156;-65
2023/07/03 12:39:25;;;;;;;5.35;1.30;;;21.40;99.90;23.50;101118.00;;;;6237752;22;20164;-64
2023/07/03 12:42:05;;;;;;;1.42;0.70;;;21.20;99.90;23.90;101114.00;;;;6281619;22;20190;-64
2023/07/03 12:44:36;;;;;;;0.10;0.10;;;21.30;99.90;25.50;101082.00;;;;6281452;22;20179;-64
2023/07/03 12:47:30;;;;;;;3.63;1.30;;;21.60;99.90;23.50;101096.00;;;;6281596;22;20148;-65
2023/07/03 12:49:59;;;;;;;3.25;1.15;;;21.60;99.90;24.20;101090.00;;;;6281291;22;20176;-65
2023/07/03 12:52:30;;;;;;;1.38;1.05;;;21.60;99.90;24.60;101067.00;;;;6307884;22;20282;-65
2023/07/03 12:55:04;;;;;;;4.40;1.02;;;21.90;99.90;24.20;101090.00;;;;6307881;22;20141;-65
2023/07/03 12:57:40;;;;;;;0.45;0.45;;;21.80;99.90;24.60;101074.00;;;;6280779;22;20466;-66
2023/07/03 13:00:30;;;;;;;8.93;0.80;;;21.70;99.90;25.10;101069.00;;;;6308083;22;20572;-66
2023/07/03 13:03:31;;;;;;;2.45;1.42;;;21.90;99.90;23.70;101085.00;;;;6308395;22;20155;-66
2023/07/03 13:05:57;;;;;;;1.83;0.93;;;21.50;99.90;23.80;101089.00;;;;6308060;22;20219;-65
2023/07/03 13:08:28;;;;;;;1.40;0.85;;;21.50;99.90;22.80;101101.00;;;;6306745;22;20261;-66
2023/07/03 13:11:30;;;;;;;0.38;0.38;;;21.10;99.90;24.30;101083.00;;;;6280796;22;20642;-66
2023/07/03 13:14:13;;;;;;;2.05;0.85;;;21.30;99.90;23.90;101105.00;;;;6258894;22;20217;-66
2023/07/03 13:16:45;;;;;;;2.83;0.75;;;21.40;99.90;24.90;101073.00;;;;6307971;22;20561;-66
2023/07/03 13:19:35;;;;;;;1.58;1.38;;;22.00;99.90;24.40;101066.00;;;;6308437;22;20472;-65
2023/07/03 13:22:17;;;;;;;3.33;1.20;;;22.10;99.90;24.70;101052.00;;;;6307785;22;20584;-64
2023/07/03 13:25:04;;;;;;;0.13;0.13;;;21.80;99.90;25.30;101045.00;;;;6307852;22;20466;-64
2023/07/03 13:27:31;;;;;;;5.97;1.15;;;22.10;99.90;23.40;101109.00;;;;6280672;22;20148;-64
2023/07/03 13:30:26;;;;;;;1.55;0.88;;;21.60;99.90;24.70;101084.00;;;;6255468;22;20155;-65
2023/07/03 13:33:00;;;;;;;0.20;0.20;;;21.60;99.90;25.30;101071.00;;;;6306438;22;20199;-65
2023/07/03 13:35:50;;;;;;;0.65;0.30;;;21.80;99.90;25.50;101055.00;;;;6308462;22;20140;-65
2023/07/03 13:38:29;;;;;;;1.55;0.93;;;22.10;99.90;25.20;101063.00;;;;6281566;22;20145;-64
2023/07/03 13:41:03;;;;;;;2.08;1.48;;;22.20;99.90;24.60;101070.00;;;;6280973;22;20144;-64
2023/07/03 13:43:32;;;;;;;0.57;0.57;;;22.10;99.90;24.00;101079.00;;;;6307566;22;20596;-64
2023/07/03 13:46:01;;;;;;;0.30;0.30;;;21.70;99.90;23.00;101100.00;;;;6308157;22;20176;-64
2023/07/03 13:48:32;;;;;;;3.33;1.45;;;21.20;99.90;24.10;101082.00;;;;6307960;22;20204;-65
2023/07/03 13:51:02;;;;;;;1.48;0.73;;;21.40;99.90;23.90;101071.00;;;;6307707;22;20156;-65
2023/07/03 13:53:37;;;;;;;3.13;0.80;;;21.50;99.90;24.00;101107.00;;;;6307457;22;20183;-65
2023/07/03 13:56:06;;;;;;;0.22;0.22;;;21.60;99.90;23.70;101092.00;;;;6307629;22;20219;-65
2023/07/03 13:58:35;;;;;;;3.83;1.20;;;21.40;99.90;24.10;101079.00;;;;6280709;22;20545;-65
2023/07/03 14:01:07;;;;;;;2.83;1.10;;;21.40;99.90;24.10;101081.00;;;;6280425;22;20156;-64
2023/07/03 14:03:32;;;;;;;2.53;1.77;;;21.60;99.90;24.10;101065.00;;;;6307756;22;20172;-65
2023/07/03 14:06:01;;;;;;;2.65;1.42;;;21.80;99.90;23.10;101091.00;;;;6280013;22;20155;-65
2023/07/03 14:08:33;;;;;;;1.35;1.15;;;21.30;99.90;24.20;101068.00;;;;6307643;22;20153;-65
2023/07/03 14:11:03;;;;;;;0.28;0.28;;;21.50;99.90;24.40;101070.00;;;;6308050;22;20136;-65
2023/07/03 14:13:34;;;;;;;5.53;1.33;;;21.70;99.90;24.00;101078.00;;;;6307355;22;20137;-65
2023/07/03 14:16:09;;;;;;;1.05;0.85;;;21.80;99.90;24.10;101054.00;;;;6307857;22;20223;-65
2023/07/03 14:18:37;;;;;;;3.28;2.38;;;21.80;99.90;24.70;101042.00;;;;6307703;22;20159;-65
2023/07/03 14:21:15;;;;;;;6.45;1.42;;;21.90;99.90;24.00;101047.00;;;;6307986;22;20140;-65
2023/07/03 14:24:07;;;;;;;0.10;0.10;;;21.70;99.90;25.40;101023.00;;;;6307272;22;20598;-65
2023/07/03 14:26:33;;;;;;;0.20;0.20;;;21.80;99.90;25.30;101043.00;;;;6280543;22;20493;-65
2023/07/03 14:28:58;;;;;;;1.55;1.45;;;22.10;99.90;23.60;101059.00;;;;6280117;22;20144;-65
2023/07/03 14:31:32;;;;;;;1.38;0.93;;;21.30;99.90;24.80;101047.00;;;;6307488;22;20160;-64
2023/07/03 14:34:00;;;;;;;0.65;0.60;;;21.60;99.90;23.60;101055.00;;;;6307646;22;20283;-65
2023/07/03 14:36:28;;;;;;;0.47;0.47;;;21.40;99.90;23.30;101064.00;;;;6307596;22;20159;-65
2023/07/03 14:38:56;;;;;;;3.75;1.77;;;21.30;99.90;23.90;101060.00;;;;6307091;22;20520;-64
2023/07/03 14:41:22;;;;;;;1.25;0.95;;;21.30;99.90;23.40;101057.00;;;;6280401;22;20471;-64
2023/07/03 14:43:57;;;;;;;0.80;0.70;;;21.30;99.90;24.90;101035.00;;;;6280287;22;20166;-64
2023/07/03 14:46:26;;;;;;;15.77;1.27;;;21.60;99.90;23.90;101056.00;;;;6307765;22;20140;-65
2023/07/03 14:48:59;;;;;;;2.55;1.20;;;21.50;99.90;24.40;101046.00;;;;6307806;22;20151;-64
2023/07/03 14:51:30;;;;;;;1.13;0.90;;;21.60;99.90;25.10;101042.00;;;;6307321;22;20170;-64
2023/07/03 14:54:03;;;;;;;1.85;1.30;;;22.00;99.90;23.20;101059.00;;;;6307193;22;20623;-65
2023/07/03 14:56:41;;;;;;;0.50;0.50;;;21.50;99.90;24.40;101040.00;;;;6280973;22;20137;-64
2023/07/03 14:59:12;;;;;;;1.83;0.98;;;21.70;99.90;24.70;101039.00;;;;6307699;22;20223;-64
2023/07/03 15:01:40;;;;;;;2.00;1.40;;;21.90;99.90;24.10;101053.00;;;;6307277;22;20201;-65
2023/07/03 15:04:09;;;;;;;6.95;1.48;;;21.70;99.90;23.80;101059.00;;;;6307645;22;20561;-65
2023/07/03 15:06:40;;;;;;;6.70;1.73;;;21.60;99.90;24.60;101044.00;;;;6307507;22;20194;-65
2023/07/03 15:09:15;;;;;;;4.85;2.35;;;21.80;99.90;23.60;101052.00;;;;6281007;22;20136;-65
2023/07/03 15:11:47;;;;;;;5.47;1.88;;;21.40;99.90;24.10;101057.00;;;;6307156;22;20656;-65
2023/07/03 15:14:26;;;;;;;8.73;1.17;;;21.40;99.90;24.20;101026.00;;;;6307058;22;20141;-65
2023/07/03 15:17:02;;;;;;;4.15;1.67;;;21.50;99.90;24.60;101044.00;;;;6307259;22;20137;-65
2023/07/03 15:19:38;;;;;;;0.10;0.10;;;21.70;99.90;25.00;101045.00;;;;6281652;22;20227;-65
2023/07/03 15:22:06;;;;;;;1.38;1.27;;;21.90;99.90;23.50;101059.00;;;;6307606;22;20190;-65
2023/07/03 15:24:34;;;;;;;0.45;0.45;;;21.40;99.90;25.00;101032.00;;;;6281871;22;20160;-65
2023/07/03 15:27:10;;;;;;;3.60;0.82;;;21.60;99.90;24.70;101033.00;;;;6282195;22;20242;-65
2023/07/03 15:29:49;;;;;;;0.10;0.10;;;21.90;99.90;24.80;101045.00;;;;6278980;22;20164;-65
2023/07/03 15:32:20;;;;;;;2.88;0.73;;;21.60;99.90;24.10;101051.00;;;;6282018;22;20176;-65
2023/07/03 15:34:58;;;;;;;3.42;1.63;;;21.60;99.90;23.90;101044.00;;;;6283040;22;20140;-65
2023/07/03 15:37:33;;;;;;;6.93;2.33;;;21.60;99.90;24.10;101041.00;;;;6281901;22;20206;-64
2023/07/03 15:40:12;;;;;;;3.05;1.73;;;21.60;99.90;24.40;101034.00;;;;6309519;22;20226;-65
2023/07/03 15:42:59;;;;;;;4.18;1.00;;;21.90;99.90;24.60;100990.00;;;;6282713;22;20250;-65
2023/07/03 15:45:32;;;;;;;1.90;1.05;;;21.90;99.90;24.80;101018.00;;;;6282088;22;20136;-65
2023/07/03 15:51:11;;;;;;;1.45;1.05;;;21.80;99.90;25.00;101028.00;;;;6222809;22;20259;-65
2023/07/03 15:53:40;;;;;;;0.20;0.20;;;21.90;99.90;24.90;101026.00;;;;6308888;22;20206;-64
2023/07/03 15:56:18;;;;;;;2.40;1.30;;;21.80;99.90;23.50;101049.00;;;;6281814;22;20232;-65
2023/07/03 15:58:58;;;;;;;1.90;1.40;;;21.50;99.90;24.50;101035.00;;;;6309278;22;20136;-65
2023/07/03 16:01:37;;;;;;;1.48;0.85;;;21.70;99.90;24.10;101041.00;;;;6308638;22;20608;-65
2023/07/03 16:04:10;;;;;;;2.97;1.08;;;21.60;99.90;23.50;101058.00;;;;6282252;22;20201;-64
2023/07/03 16:06:39;;;;;;;2.05;1.48;;;21.40;99.90;23.70;101042.00;;;;6282285;22;20137;-65
2023/07/03 16:09:19;;;;;;;3.83;2.08;;;21.50;99.90;24.00;101027.00;;;;6281786;22;20163;-65
2023/07/03 16:11:55;;;;;;;1.83;0.80;;;21.30;99.90;24.30;101036.00;;;;6308590;22;20222;-65
2023/07/03 16:14:46;;;;;;;0.82;0.82;;;21.40;99.90;24.60;101029.00;;;;6309065;22;20136;-65
2023/07/03 16:17:12;;;;;;;2.63;1.65;;;21.80;99.90;25.10;101019.00;;;;6285958;22;20164;-65
2023/07/03 16:20:04;;;;;;;0.32;0.28;;;22.10;99.90;25.00;101015.00;;;;6308829;22;20205;-64
2023/07/03 16:22:45;;;;;;;6.28;1.80;;;22.20;99.90;24.50;101012.00;;;;6281627;22;20190;-65
2023/07/03 16:25:14;;;;;;;0.60;0.30;;;21.90;99.90;24.30;101027.00;;;;6308851;22;20290;-64
2023/07/03 16:27:58;;;;;;;8.45;2.65;;;21.80;99.90;23.70;101021.00;;;;6308843;22;20149;-65
2023/07/03 16:30:32;;;;;;;2.08;1.05;;;21.50;99.90;23.10;101045.00;;;;6281471;22;20148;-65
2023/07/03 16:33:01;;;;;;;2.03;1.42;;;21.20;99.90;23.40;101044.00;;;;6308966;22;20164;-65
2023/07/03 16:35:38;;;;;;;5.03;1.23;;;21.10;99.90;23.40;101032.00;;;;6308600;22;20151;-65
2023/07/03 16:38:21;;;;;;;1.75;1.00;;;21.30;99.90;24.90;101018.00;;;;6308846;22;20162;-65
2023/07/03 16:40:53;;;;;;;2.45;0.77;;;21.50;99.90;24.80;101008.00;;;;6308277;22;20139;-65
2023/07/03 16:43:29;;;;;;;1.42;0.90;;;21.70;99.90;23.50;101019.00;;;;6308508;22;20167;-65
2023/07/03 16:46:20;;;;;;;1.17;0.50;;;21.40;99.90;24.00;101016.00;;;;6308636;22;20197;-65
2023/07/03 16:48:53;;;;;;;0.38;0.38;;;21.50;99.90;25.20;100987.00;;;;6308778;22;20160;-65
2023/07/03 16:51:42;;;;;;;0.17;0.13;;;21.80;99.90;24.80;100995.00;;;;6308572;22;20176;-65
2023/07/03 16:54:13;;;;;;;3.75;1.67;;;21.70;99.90;23.70;101020.00;;;;6233385;22;20170;-65
2023/07/03 16:56:49;;;;;;;1.23;0.70;;;21.40;99.90;24.80;101014.00;;;;6308332;22;20156;-65
2023/07/03 16:59:28;;;;;;;1.15;1.08;;;21.60;99.90;24.80;101010.00;;;;6308723;22;20140;-65
2023/07/03 17:02:14;;;;;;;3.20;0.82;;;21.50;99.90;23.70;101010.00;;;;6305733;22;20167;-65
2023/07/03 17:04:55;;;;;;;3.97;1.15;;;21.10;99.90;22.80;101035.00;;;;6305751;22;20160;-65
2023/07/03 17:07:35;;;;;;;2.97;1.90;;;21.00;99.90;23.70;101034.00;;;;6308366;22;20136;-65
2023/07/03 17:10:07;;;;;;;0.93;0.70;;;21.00;99.90;23.10;101040.00;;;;6281543;22;20140;-65
2023/07/03 17:12:47;;;;;;;5.18;0.88;;;20.70;99.90;23.60;101035.00;;;;6306518;22;20175;-65
2023/07/03 17:15:19;;;;;;;0.30;0.30;;;20.90;99.90;23.30;101053.00;;;;6308148;22;20155;-65
2023/07/03 17:17:50;;;;;;;2.33;1.13;;;20.70;99.90;22.80;101064.00;;;;6306201;22;20459;-65
2023/07/03 17:20:21;;;;;;;3.53;1.70;;;20.50;99.90;21.80;101059.00;;;;6306726;22;20156;-64
2023/07/03 17:22:54;;;;;;;0.50;0.50;;;20.20;99.90;22.70;101060.00;;;;6280830;22;20235;-65
2023/07/03 17:25:26;;;;;;;2.00;0.85;;;20.20;99.90;22.50;101045.00;;;;6308005;22;20519;-64
2023/07/03 17:28:03;;;;;;;3.30;1.40;;;20.30;99.90;22.20;101061.00;;;;6308125;22;20141;-65
2023/07/03 17:30:32;;;;;;;3.25;1.33;;;20.20;99.90;23.00;101049.00;;;;6308395;22;20144;-64
2023/07/03 17:33:09;;;;;;;2.13;0.88;;;20.40;99.90;22.50;101059.00;;;;6281218;22;20198;-64
2023/07/03 17:35:55;;;;;;;9.40;1.63;;;20.20;99.90;22.30;101068.00;;;;6281118;22;20194;-65
2023/07/03 17:38:33;;;;;;;1.77;1.67;;;20.10;99.90;22.30;101072.00;;;;6279929;22;20246;-64
2023/07/03 17:41:16;;;;;;;2.78;1.25;;;20.10;99.90;21.40;101085.00;;;;6280965;22;20151;-65
2023/07/03 17:43:51;;;;;;;0.77;0.60;;;19.70;99.90;21.70;101066.00;;;;6256736;22;20206;-64
2023/07/03 17:46:27;;;;;;;1.65;0.75;;;19.70;99.90;22.90;101054.00;;;;6307639;22;20146;-64
2023/07/03 17:49:04;;;;;;;4.28;0.80;;;20.10;99.90;23.40;101051.00;;;;6306101;22;20482;-65
2023/07/03 17:51:41;;;;;;;3.88;1.25;;;20.30;99.90;21.80;101066.00;;;;6306206;22;20685;-65
2023/07/03 17:54:24;;;;;;;1.75;1.05;;;20.00;99.90;22.00;101074.00;;;;6308206;22;20569;-64
2023/07/03 17:56:56;;;;;;;2.05;1.75;;;19.90;99.90;21.90;101069.00;;;;6308109;22;20140;-65
2023/07/03 17:59:30;;;;;;;1.17;0.68;;;19.70;99.90;22.30;101078.00;;;;6307459;22;20165;-64
2023/07/03 18:02:08;;;;;;;3.92;1.65;;;19.70;99.90;22.20;101073.00;;;;6281298;22;20200;-64
2023/07/03 18:04:38;;;;;;;0.45;0.32;;;19.80;99.90;22.50;101071.00;;;;6307557;22;20598;-65
2023/07/03 18:07:07;;;;;;;0.70;0.70;;;19.80;99.90;21.80;101041.00;;;;6307993;22;20620;-65
2023/07/03 18:09:39;;;;;;;1.65;1.40;;;19.70;99.90;22.50;101072.00;;;;6280507;22;20528;-65
2023/07/03 18:12:18;;;;;;;4.88;0.98;;;19.70;99.90;22.70;101057.00;;;;6307860;22;20179;-65
2023/07/03 18:14:47;;;;;;;2.72;0.60;;;20.00;99.90;21.90;101050.00;;;;6304940;22;20195;-64
2023/07/03 18:17:15;;;;;;;2.30;1.03;;;19.70;99.90;22.00;101041.00;;;;6307767;22;20160;-65
2023/07/03 18:20:03;;;;;;;0.50;0.50;;;19.70;99.90;22.10;101068.00;;;;6307481;22;20219;-64
2023/07/03 18:22:34;;;;;;;11.02;2.65;;;19.70;99.90;21.90;101083.00;;;;6307620;22;20250;-64
2023/07/03 18:25:21;;;;;;;0.88;0.32;;;19.70;99.90;23.00;101054.00;;;;6279955;22;20162;-64
2023/07/03 18:28:17;;;;;;;2.63;1.38;;;19.90;99.90;22.20;101072.00;;;;6306979;22;20179;-65
2023/07/03 18:31:06;;;;;;;1.75;1.13;;;19.70;99.90;21.40;101076.00;;;;6307563;22;20249;-64
2023/07/03 18:33:49;;;;;;;12.53;1.50;;;19.50;99.90;21.40;101089.00;;;;6307481;22;20497;-64
2023/07/03 18:36:23;;;;;;;6.57;1.33;;;19.40;99.90;21.00;101090.00;;;;6255358;22;20158;-64
2023/07/03 18:38:55;;;;;;;4.45;1.30;;;19.20;99.90;22.60;101075.00;;;;6280748;22;20204;-65
2023/07/03 18:41:25;;;;;;;1.80;0.90;;;19.60;99.90;22.00;101070.00;;;;6280418;22;20194;-65
2023/07/03 18:44:07;;;;;;;2.22;1.17;;;19.50;99.90;22.20;101079.00;;;;6280078;22;20167;-64
2023/07/03 18:46:40;;;;;;;3.50;1.33;;;19.50;99.90;21.10;101110.00;;;;6281242;22;20584;-64
2023/07/03 18:49:15;;;;;;;3.08;1.85;;;19.20;99.90;21.80;101085.00;;;;6305457;22;20154;-64
2023/07/03 18:51:59;;;;;;;4.53;1.77;;;19.10;99.90;21.10;101094.00;;;;6307528;22;20170;-65
2023/07/03 18:54:47;;;;;;;1.23;1.23;;;19.30;99.90;21.30;101108.00;;;;6308440;22;20644;-65
2023/07/03 18:57:29;;;;;;;4.32;0.68;;;19.20;99.90;22.00;101083.00;;;;6309799;22;20155;-65
2023/07/03 19:00:04;;;;;;;1.83;0.93;;;19.20;99.90;21.30;101093.00;;;;6309481;22;20150;-64
2023/07/03 19:02:32;;;;;;;0.88;0.82;;;19.20;99.90;21.40;101083.00;;;;6283270;22;20167;-64
2023/07/03 19:05:21;;;;;;;5.85;1.83;;;19.10;99.90;21.70;101094.00;;;;6282345;22;20245;-64
2023/07/03 19:08:25;;;;;;;4.32;2.00;;;19.10;99.90;21.50;101100.00;;;;6309339;22;20140;-64
2023/07/03 19:11:26;;;;;;;1.73;0.88;;;19.10;99.90;20.90;101100.00;;;;6301665;22;20598;-64
2023/07/03 19:14:10;;;;;;;1.85;1.17;;;18.90;99.90;21.30;101100.00;;;;6308976;22;20460;-64
2023/07/03 19:17:08;;;;;;;1.07;0.53;;;18.90;99.90;21.40;101090.00;;;;6282339;22;20158;-65
2023/07/03 19:19:41;;;;;;;0.97;0.60;;;18.80;99.90;21.10;101106.00;;;;6309148;22;20152;-65